Time;durP1;ratioP1;P1;durP2;ratioP2;P2;SDS_P1;SDS_P2;PMS_P1;PMS_P2;Temp;Humidity;BMP_temperature;BMP_pressure;BME280_temperature;BME280_humidity;BME280_pressure;Samples;Min_cycle;Max_cycle;Signal;HPM_P1;HPM_P2
2021/09/08 04:29:40;;;;;;;15.72;10.20;;;;;;;8.42;90.45;99006.73;1871504;76;22717;-61
2021/09/08 04:32:07;;;;;;;13.78;7.92;;;;;;;8.38;90.53;99005.63;1827856;78;21002;-60
2021/09/08 04:34:33;;;;;;;13.13;7.70;;;;;;;8.43;90.55;99008.36;1827867;78;21745;-60
2021/09/08 04:37:00;;;;;;;10.48;7.72;;;;;;;8.51;90.62;99003.88;1827861;78;20963;-60
2021/09/08 04:39:27;;;;;;;13.50;7.12;;;;;;;8.62;90.80;99003.73;1827923;78;20955;-60
2021/09/08 04:41:53;;;;;;;16.05;8.60;;;;;;;8.76;90.67;99004.14;1827778;78;20903;-61
2021/09/08 04:44:20;;;;;;;16.52;8.68;;;;;;;8.85;90.57;99000.75;1827836;78;20963;-60
2021/09/08 04:46:47;;;;;;;12.80;8.53;;;;;;;8.97;90.53;98999.25;1827812;78;21106;-60
2021/09/08 04:49:14;;;;;;;14.30;8.13;;;;;;;9.08;90.51;99004.94;1827712;78;21414;-60
2021/09/08 04:51:41;;;;;;;14.10;8.48;;;;;;;9.22;90.35;99010.64;1827786;78;20876;-60
2021/09/08 04:54:09;;;;;;;14.83;8.58;;;;;;;9.35;90.10;99010.22;1827795;78;20954;-62
2021/09/08 04:56:37;;;;;;;16.10;9.45;;;;;;;9.46;89.86;99011.88;1836789;78;20972;-60
2021/09/08 04:59:04;;;;;;;15.60;8.30;;;;;;;9.55;89.62;99011.14;1831477;78;21658;-60
2021/09/08 05:01:32;;;;;;;17.82;8.23;;;;;;;9.64;89.50;99014.94;1827550;78;20961;-60
2021/09/08 05:03:58;;;;;;;17.85;7.92;;;;;;;9.79;89.33;99016.89;1827651;78;20876;-62
2021/09/08 05:06:25;;;;;;;11.20;7.72;;;;;;;9.95;89.19;99013.74;1787582;78;21415;-61
2021/09/08 05:08:52;;;;;;;12.55;8.08;;;;;;;10.10;88.93;99009.80;1752462;80;20883;-61
2021/09/08 05:11:20;;;;;;;16.97;8.90;;;;;;;10.24;88.74;99012.28;1789762;80;21126;-60
2021/09/08 05:13:47;;;;;;;15.65;8.70;;;;;;;10.37;88.55;99010.96;1788518;80;20935;-62
2021/09/08 05:16:14;;;;;;;20.77;9.40;;;;;;;10.52;88.26;99005.13;1789714;80;20890;-62
2021/09/08 05:18:41;;;;;;;19.65;8.50;;;;;;;10.70;87.98;99010.50;1789977;80;20920;-61
2021/09/08 05:21:08;;;;;;;19.70;9.65;;;;;;;10.83;87.68;99013.45;1790445;80;21075;-63
2021/09/08 05:23:35;;;;;;;17.48;9.75;;;;;;;10.96;87.39;99012.13;1781415;78;21671;-60
2021/09/08 05:26:01;;;;;;;33.67;10.98;;;;;;;11.07;87.23;99019.66;1785768;80;20860;-61
2021/09/08 05:28:28;;;;;;;21.77;10.03;;;;;;;11.21;87.09;99015.36;1787419;80;21010;-60
2021/09/08 05:30:56;;;;;;;26.20;11.70;;;;;;;11.36;86.92;99022.03;1828264;78;20943;-61
2021/09/08 05:33:23;;;;;;;22.60;11.50;;;;;;;11.51;86.64;99023.36;1819394;78;20866;-61
2021/09/08 05:35:50;;;;;;;23.27;12.20;;;;;;;11.64;86.35;99025.47;1824928;77;21539;-61
2021/09/08 05:38:20;;;;;;;17.45;10.93;;;;;;;11.76;85.99;99031.38;1838207;78;21006;-61
2021/09/08 05:40:48;;;;;;;20.35;10.63;;;;;;;11.88;85.47;99029.20;1838628;78;21388;-61
2021/09/08 05:43:15;;;;;;;21.23;10.15;;;;;;;11.99;85.08;99029.42;1838707;78;20920;-62
2021/09/08 05:45:43;;;;;;;23.18;9.95;;;;;;;12.13;84.42;99029.10;1838332;78;20925;-62
2021/09/08 05:48:10;;;;;;;19.92;9.90;;;;;;;12.27;83.51;99030.11;1837117;78;22077;-61
2021/09/08 05:50:38;;;;;;;17.75;10.08;;;;;;;12.39;82.55;99029.00;1837460;78;21412;-63
2021/09/08 05:53:07;;;;;;;17.90;9.88;;;;;;;12.48;81.84;99031.38;1807585;78;21062;-62
2021/09/08 05:55:35;;;;;;;21.07;9.30;;;;;;;12.58;81.22;99024.57;1837837;78;20890;-60
2021/09/08 05:58:02;;;;;;;25.52;10.93;;;;;;;12.68;80.64;99023.17;1838617;78;20910;-63
2021/09/08 06:00:29;;;;;;;20.48;10.72;;;;;;;12.83;80.16;99023.09;1838407;78;21114;-61
2021/09/08 06:02:56;;;;;;;19.23;9.30;;;;;;;12.96;79.61;99017.06;1838362;78;20898;-62
2021/09/08 06:05:23;;;;;;;18.52;10.55;;;;;;;13.11;79.16;99023.70;1808804;78;21246;-60
2021/09/08 06:07:51;;;;;;;18.10;10.90;;;;;;;13.22;78.77;99014.45;1838452;78;20988;-61
2021/09/08 06:10:20;;;;;;;17.48;10.20;;;;;;;13.32;78.54;99018.41;1838525;78;20918;-61
2021/09/08 06:12:48;;;;;;;18.92;11.30;;;;;;;13.41;78.11;99016.70;1838493;78;21861;-59
2021/09/08 06:15:16;;;;;;;18.45;10.13;;;;;;;13.49;77.89;99022.83;1838385;78;20823;-60
2021/09/08 06:17:43;;;;;;;18.10;10.38;;;;;;;13.59;77.80;99024.06;1838665;78;20870;-60
2021/09/08 06:20:10;;;;;;;16.35;11.00;;;;;;;13.71;77.96;99014.24;1838336;78;20969;-61
2021/09/08 06:22:40;;;;;;;23.98;14.55;;;;;;;13.87;78.03;99010.86;1825856;78;21070;-62
2021/09/08 06:25:08;;;;;;;16.27;10.28;;;;;;;14.05;77.52;99007.41;1825781;78;21006;-64
2021/09/08 06:27:37;;;;;;;15.80;11.20;;;;;;;14.22;76.53;99009.08;1819802;77;21494;-61
2021/09/08 06:30:06;;;;;;;24.67;11.28;;;;;;;14.38;76.25;99007.28;1768721;77;21579;-60
2021/09/08 06:32:33;;;;;;;14.83;10.95;;;;;;;14.55;75.92;99004.08;1762882;80;20974;-60
2021/09/08 06:34:59;;;;;;;15.20;10.65;;;;;;;14.71;75.75;99006.81;1776552;80;21630;-60
2021/09/08 06:37:26;;;;;;;22.25;12.18;;;;;;;14.86;75.65;99007.13;1778019;80;21127;-60
2021/09/08 06:39:53;;;;;;;19.48;10.98;;;;;;;14.99;75.28;99007.18;1778276;80;20967;-61
2021/09/08 06:42:20;;;;;;;23.87;11.33;;;;;;;15.13;75.14;99002.37;1775456;79;21052;-60
2021/09/08 06:44:55;;;;;;;19.67;11.43;;;;;;;15.28;75.06;99006.98;1757851;79;21049;-63
2021/09/08 06:47:21;;;;;;;17.40;10.82;;;;;;;15.40;74.93;99008.63;1761924;79;20938;-61
2021/09/08 06:49:49;;;;;;;16.52;11.63;;;;;;;15.53;74.89;99003.05;1755109;80;21114;-59
2021/09/08 06:52:20;;;;;;;17.82;12.45;;;;;;;15.65;74.86;99010.12;1777280;80;20939;-60
2021/09/08 06:54:47;;;;;;;18.42;11.78;;;;;;;15.73;74.72;99008.86;1747886;80;21520;-60
2021/09/08 06:57:16;;;;;;;20.95;12.43;;;;;;;15.79;74.48;99006.88;1746303;82;20907;-60
2021/09/08 06:59:44;;;;;;;17.60;12.33;;;;;;;15.84;74.05;99010.03;1769583;79;21170;-60
2021/09/08 07:02:11;;;;;;;21.10;13.60;;;;;;;15.88;73.79;99009.67;1777728;80;21103;-60
2021/09/08 07:04:39;;;;;;;17.02;12.63;;;;;;;15.91;73.57;99007.73;1771561;79;20962;-60
2021/09/08 07:07:06;;;;;;;21.82;13.40;;;;;;;15.96;73.29;99012.50;1769630;80;21422;-60
2021/09/08 07:09:34;;;;;;;20.17;14.07;;;;;;;16.00;73.10;99017.54;1757947;80;20988;-60
2021/09/08 07:12:04;;;;;;;21.55;14.18;;;;;;;16.07;72.90;99020.64;1766591;80;21464;-60
2021/09/08 07:14:32;;;;;;;22.77;14.13;;;;;;;16.15;72.92;99022.65;1758591;80;21114;-61
2021/09/08 07:16:59;;;;;;;19.42;13.25;;;;;;;16.25;72.73;99021.07;1762767;79;20978;-60
2021/09/08 07:19:27;;;;;;;21.45;12.63;;;;;;;16.39;72.70;99019.72;1759204;79;21010;-60
2021/09/08 07:21:54;;;;;;;21.48;12.98;;;;;;;16.53;72.67;99023.78;1755457;80;20926;-60
2021/09/08 07:24:23;;;;;;;19.25;12.25;;;;;;;16.69;72.50;99015.56;1770939;79;20880;-60
2021/09/08 07:26:55;;;;;;;17.30;12.75;;;;;;;16.84;71.85;99023.34;1753466;79;21818;-60
2021/09/08 07:29:20;;;;;;;22.37;13.48;;;;;;;17.01;71.62;99020.75;1781442;78;20999;-60
2021/09/08 07:31:47;;;;;;;22.95;12.90;;;;;;;17.19;71.52;99016.28;1814749;77;20987;-60
2021/09/08 07:34:15;;;;;;;20.37;12.10;;;;;;;17.34;71.02;99016.69;1817042;77;21311;-60
2021/09/08 07:36:46;;;;;;;22.05;12.30;;;;;;;17.47;70.28;99015.83;1821517;78;21047;-59
2021/09/08 07:39:23;;;;;;;21.70;12.28;;;;;;;17.60;69.47;99014.95;1809784;78;20925;-59
2021/09/08 07:41:51;;;;;;;18.87;11.95;;;;;;;17.73;69.17;99009.98;1816751;78;21490;-60
2021/09/08 07:44:20;;;;;;;20.62;11.05;;;;;;;17.85;68.50;99008.63;1818762;78;21123;-60
2021/09/08 07:46:51;;;;;;;17.62;11.73;;;;;;;17.95;67.16;99010.48;1823159;78;21452;-60
2021/09/08 07:49:19;;;;;;;15.63;10.98;;;;;;;18.04;65.89;99015.38;1821329;78;20922;-60
2021/09/08 07:51:48;;;;;;;17.02;11.78;;;;;;;18.13;65.14;99012.16;1820763;78;21035;-60
2021/09/08 07:54:16;;;;;;;19.55;11.50;;;;;;;18.23;64.38;99014.55;1810723;78;20841;-60
2021/09/08 07:56:43;;;;;;;18.42;11.33;;;;;;;18.33;64.65;99012.91;1812166;77;21475;-59
2021/09/08 07:59:15;;;;;;;15.80;11.25;;;;;;;18.41;63.80;99011.34;1815496;77;20959;-60
2021/09/08 08:01:48;;;;;;;18.87;10.70;;;;;;;18.52;63.97;99011.30;1819305;78;21027;-60
2021/09/08 08:04:21;;;;;;;15.15;11.30;;;;;;;18.63;63.76;99011.22;1800783;77;21115;-59
2021/09/08 08:06:52;;;;;;;17.07;10.90;;;;;;;18.75;62.82;99012.75;1812518;77;21043;-59
2021/09/08 08:09:24;;;;;;;19.12;10.90;;;;;;;18.85;61.93;99012.99;1821537;77;20963;-61
2021/09/08 08:11:55;;;;;;;19.57;10.95;;;;;;;18.95;61.78;99014.84;1815644;78;21094;-60
2021/09/08 08:14:22;;;;;;;19.60;10.98;;;;;;;19.01;61.55;99021.69;1810423;78;21026;-60
2021/09/08 08:16:55;;;;;;;16.27;10.70;;;;;;;19.10;60.98;99015.69;1814184;78;21128;-59
2021/09/08 08:19:24;;;;;;;18.23;11.55;;;;;;;19.20;60.85;99016.47;1817494;78;21443;-59
2021/09/08 08:21:58;;;;;;;16.93;11.25;;;;;;;19.32;60.77;99017.42;1819269;77;20860;-60
2021/09/08 08:24:26;;;;;;;16.50;10.55;;;;;;;19.40;59.83;99015.84;1808564;78;21006;-59
2021/09/08 08:27:00;;;;;;;14.33;10.20;;;;;;;19.43;58.81;99015.21;1762513;80;20912;-61
2021/09/08 08:29:30;;;;;;;14.68;9.73;;;;;;;19.44;58.20;99018.15;1824199;77;21846;-62
2021/09/08 08:31:59;;;;;;;14.33;10.20;;;;;;;19.45;58.64;99021.12;1797996;78;21073;-62
2021/09/08 08:34:34;;;;;;;17.75;10.45;;;;;;;19.49;58.33;99016.63;1804312;79;21570;-62
2021/09/08 08:37:04;;;;;;;14.98;10.65;;;;;;;19.57;58.73;99017.17;1809534;79;21055;-61
2021/09/08 08:39:38;;;;;;;20.95;9.98;;;;;;;19.67;58.48;99022.23;1812202;77;20931;-62
2021/09/08 08:42:13;;;;;;;12.60;10.10;;;;;;;19.75;58.27;99015.98;1803093;77;21837;-60
2021/09/08 08:44:42;;;;;;;13.40;9.90;;;;;;;19.85;57.92;99022.44;1799802;77;20915;-61
2021/09/08 08:47:15;;;;;;;14.65;10.20;;;;;;;19.93;57.72;99016.70;1806036;78;21725;-60
2021/09/08 08:50:11;;;;;;;11.97;9.58;;;;;;;20.03;57.83;99019.87;1804629;77;21051;-65
2021/09/08 08:52:41;;;;;;;17.00;10.48;;;;;;;20.13;56.69;99019.51;1810168;79;20946;-61
2021/09/08 08:55:12;;;;;;;14.87;10.75;;;;;;;20.25;57.20;99025.08;1796133;78;21469;-62
2021/09/08 08:57:48;;;;;;;18.00;10.23;;;;;;;20.35;56.63;99023.32;1808007;79;20966;-62
2021/09/08 09:00:21;;;;;;;15.48;9.80;;;;;;;20.43;56.29;99016.23;1778954;79;20971;-61
2021/09/08 09:02:59;;;;;;;16.10;9.53;;;;;;;20.52;56.72;99018.89;1785126;78;20947;-60
2021/09/08 09:05:48;;;;;;;13.80;9.45;;;;;;;20.63;56.96;99017.40;1794917;79;21592;-62
2021/09/08 09:08:24;;;;;;;13.75;9.78;;;;;;;20.72;55.71;99005.31;1748692;80;20963;-61
2021/09/08 09:10:58;;;;;;;17.25;10.13;;;;;;;20.83;55.44;99013.87;1720747;81;20856;-61
2021/09/08 09:13:34;;;;;;;21.45;9.43;;;;;;;20.90;55.01;99007.32;1739689;80;20995;-62
2021/09/08 09:16:09;;;;;;;14.98;9.30;;;;;;;20.96;55.02;99010.09;1739960;80;21014;-61
2021/09/08 09:18:45;;;;;;;11.33;8.30;;;;;;;21.08;54.93;99012.88;1756298;80;21069;-62
2021/09/08 09:21:16;;;;;;;11.73;7.92;;;;;;;21.17;53.01;99009.53;1792147;78;21490;-62
2021/09/08 09:23:58;;;;;;;9.63;7.92;;;;;;;21.25;52.05;99001.83;1786045;78;21014;-60
2021/09/08 09:26:37;;;;;;;11.45;7.92;;;;;;;21.33;52.34;99003.67;1812054;78;21037;-61
2021/09/08 09:29:17;;;;;;;13.22;8.05;;;;;;;21.41;50.95;98997.92;1782440;79;21644;-61
2021/09/08 09:31:57;;;;;;;13.28;7.65;;;;;;;21.37;51.92;99007.31;1799418;79;21132;-61
2021/09/08 09:34:29;;;;;;;9.03;7.67;;;;;;;21.36;51.28;98998.12;1808421;79;21806;-60
2021/09/08 09:36:59;;;;;;;8.63;7.10;;;;;;;21.40;51.67;98998.48;1797724;78;20987;-60
2021/09/08 09:39:36;;;;;;;11.05;7.90;;;;;;;21.48;50.49;98990.76;1794112;79;21140;-63
2021/09/08 09:42:12;;;;;;;12.65;7.25;;;;;;;21.45;50.92;98995.55;1788299;79;20903;-66
2021/09/08 09:44:41;;;;;;;9.00;7.20;;;;;;;21.30;49.63;99000.25;1778559;80;21062;-63
2021/09/08 09:47:10;;;;;;;10.48;6.58;;;;;;;21.17;50.10;99001.36;1782905;80;21090;-62
2021/09/08 09:49:38;;;;;;;12.93;7.45;;;;;;;21.19;50.92;98994.20;1782132;80;21129;-62
2021/09/08 09:52:06;;;;;;;7.60;6.80;;;;;;;21.23;51.03;98997.28;1774326;80;21072;-61
2021/09/08 09:54:33;;;;;;;10.28;6.37;;;;;;;21.27;50.39;98998.19;1773067;81;21067;-62
2021/09/08 09:57:02;;;;;;;11.75;7.28;;;;;;;21.40;50.92;98999.03;1774029;80;21538;-62
2021/09/08 09:59:29;;;;;;;9.03;7.30;;;;;;;21.58;50.34;98997.14;1754830;80;21271;-61
2021/09/08 10:01:58;;;;;;;8.23;6.62;;;;;;;21.74;49.84;98993.98;1783500;80;21062;-64
2021/09/08 10:04:28;;;;;;;9.43;6.40;;;;;;;21.93;47.68;98989.96;1784426;80;20979;-63
2021/09/08 10:06:56;;;;;;;8.18;7.05;;;;;;;22.03;47.14;98983.47;1782812;80;21030;-63
2021/09/08 10:09:25;;;;;;;9.88;7.22;;;;;;;22.20;47.24;98979.71;1779435;80;20864;-63
2021/09/08 10:11:53;;;;;;;8.83;6.70;;;;;;;22.32;46.38;98979.14;1773765;80;22254;-65
2021/09/08 10:14:26;;;;;;;7.80;6.62;;;;;;;22.39;45.18;98971.17;1771757;80;21125;-63
2021/09/08 10:16:53;;;;;;;7.78;6.40;;;;;;;22.48;45.53;98972.39;1782193;79;20936;-62
2021/09/08 10:19:25;;;;;;;8.30;6.40;;;;;;;22.54;45.23;98970.23;1775163;80;20940;-62
2021/09/08 10:22:09;;;;;;;11.60;6.75;;;;;;;22.53;45.24;98966.70;1785912;80;21026;-63
2021/09/08 10:24:46;;;;;;;7.55;6.75;;;;;;;22.48;45.56;98975.92;1755961;81;21344;-63
2021/09/08 10:27:28;;;;;;;9.20;6.80;;;;;;;22.34;45.63;98971.41;1705888;80;21031;-63
2021/09/08 10:29:56;;;;;;;8.53;6.75;;;;;;;22.08;47.21;98976.98;1751841;80;20982;-62
2021/09/08 10:32:23;;;;;;;11.05;7.65;;;;;;;21.83;46.88;98974.01;1781810;80;21019;-63
2021/09/08 10:34:52;;;;;;;9.00;7.33;;;;;;;21.62;47.56;98970.80;1779116;80;21036;-65
2021/09/08 10:37:20;;;;;;;10.48;7.45;;;;;;;21.47;48.68;98979.64;1745703;80;21550;-65
2021/09/08 10:39:47;;;;;;;10.38;8.10;;;;;;;21.30;49.22;98983.11;1688246;83;21042;-62
2021/09/08 10:42:16;;;;;;;11.25;7.95;;;;;;;21.15;50.13;98980.44;1757218;81;21109;-67
2021/09/08 10:44:53;;;;;;;10.28;7.90;;;;;;;20.99;50.13;98980.25;1757220;81;21034;-62
2021/09/08 10:47:36;;;;;;;11.33;7.40;;;;;;;20.92;50.93;98983.27;1721966;83;21094;-62
2021/09/08 10:50:08;;;;;;;15.68;7.78;;;;;;;20.94;51.73;98985.09;1753065;81;21195;-65
2021/09/08 10:52:40;;;;;;;8.10;6.80;;;;;;;20.95;51.13;98982.62;1778813;79;21060;-61
2021/09/08 10:55:13;;;;;;;11.28;6.70;;;;;;;21.01;51.05;98979.91;1815574;79;21510;-60
2021/09/08 10:57:55;;;;;;;9.70;7.00;;;;;;;21.06;50.48;98968.84;1815788;79;21089;-63
2021/09/08 11:00:35;;;;;;;9.15;6.62;;;;;;;21.03;51.06;98966.77;1814151;79;21025;-62
2021/09/08 11:03:05;;;;;;;8.98;6.70;;;;;;;21.00;50.19;98967.44;1815388;79;21233;-63
2021/09/08 11:05:53;;;;;;;7.08;6.20;;;;;;;21.13;50.80;98964.23;1799420;79;20869;-62
2021/09/08 11:08:33;;;;;;;11.63;6.40;;;;;;;21.30;49.62;98962.11;1774491;80;21451;-61
2021/09/08 11:11:19;;;;;;;8.43;6.58;;;;;;;21.38;49.30;98963.16;1783255;79;21118;-61
2021/09/08 11:13:54;;;;;;;10.03;6.45;;;;;;;21.31;48.67;98959.63;1783511;80;21063;-62
2021/09/08 11:16:31;;;;;;;9.23;5.67;;;;;;;21.38;48.96;98961.80;1771607;80;21127;-61
2021/09/08 11:19:02;;;;;;;7.20;6.25;;;;;;;21.56;47.87;98954.44;1783464;80;21076;-61
2021/09/08 11:21:33;;;;;;;6.17;5.58;;;;;;;21.86;46.20;98957.78;1783486;80;20959;-63
2021/09/08 11:24:08;;;;;;;7.55;5.70;;;;;;;22.15;45.77;98948.56;1783861;80;20943;-61
2021/09/08 11:26:41;;;;;;;7.97;5.72;;;;;;;22.46;45.05;98949.55;1783278;79;21014;-65
2021/09/08 11:29:14;;;;;;;6.67;5.80;;;;;;;22.78;45.03;98947.75;1781491;79;21094;-61
2021/09/08 11:31:46;;;;;;;7.95;5.78;;;;;;;23.02;43.51;98949.03;1782245;80;20927;-64
2021/09/08 11:34:20;;;;;;;6.28;5.28;;;;;;;23.22;43.31;98948.59;1782360;80;21582;-61
2021/09/08 11:36:55;;;;;;;9.63;5.60;;;;;;;23.40;42.51;98949.08;1782024;80;21062;-60
2021/09/08 11:39:25;;;;;;;7.47;5.62;;;;;;;23.51;41.85;98944.67;1782763;79;21109;-61
2021/09/08 11:42:07;;;;;;;6.80;5.50;;;;;;;23.60;40.70;98942.58;1783106;79;21099;-62
2021/09/08 11:44:40;;;;;;;9.45;5.50;;;;;;;23.69;41.20;98951.39;1794786;79;21597;-59
2021/09/08 11:47:18;;;;;;;6.65;5.53;;;;;;;23.77;40.25;98943.57;1746203;82;21533;-62
2021/09/08 11:50:00;;;;;;;5.87;4.90;;;;;;;23.83;39.84;98951.75;1738209;82;20971;-63
2021/09/08 11:52:30;;;;;;;9.60;6.00;;;;;;;23.80;40.31;98945.61;1813695;79;21090;-61
2021/09/08 11:55:02;;;;;;;8.80;5.80;;;;;;;23.86;41.37;98945.55;1782170;79;21124;-62
2021/09/08 11:57:32;;;;;;;5.97;5.25;;;;;;;24.03;41.00;98946.55;1791383;79;21051;-63
2021/09/08 12:00:01;;;;;;;7.17;4.92;;;;;;;24.22;39.84;98947.20;1814445;78;20935;-63
2021/09/08 12:02:33;;;;;;;8.45;5.40;;;;;;;24.38;39.47;98946.01;1814039;79;21179;-62
2021/09/08 12:05:02;;;;;;;8.90;5.35;;;;;;;24.54;39.80;98943.81;1815267;79;21019;-63
2021/09/08 12:07:31;;;;;;;10.95;5.15;;;;;;;24.73;40.46;98939.71;1815700;79;21144;-61
2021/09/08 12:10:02;;;;;;;5.00;4.47;;;;;;;24.98;39.92;98936.91;1815857;78;20931;-62
2021/09/08 12:12:30;;;;;;;6.03;4.95;;;;;;;25.15;38.88;98938.61;1815526;79;20959;-63
2021/09/08 12:14:59;;;;;;;6.20;5.25;;;;;;;25.17;38.22;98935.52;1815662;78;20940;-62
2021/09/08 12:17:27;;;;;;;5.80;4.85;;;;;;;25.24;37.93;98932.91;1787202;79;21042;-62
2021/09/08 12:20:11;;;;;;;7.12;4.60;;;;;;;25.35;36.53;98939.37;1815743;79;21691;-61
2021/09/08 12:22:40;;;;;;;6.80;4.70;;;;;;;25.45;35.73;98930.58;1799499;79;20983;-62
2021/09/08 12:25:15;;;;;;;8.05;4.80;;;;;;;25.53;36.75;98932.27;1788712;79;20969;-61
2021/09/08 12:27:47;;;;;;;6.40;4.72;;;;;;;25.60;36.88;98915.92;1798900;79;20962;-60
2021/09/08 12:30:24;;;;;;;5.35;4.80;;;;;;;25.73;35.79;98928.31;1802842;79;21002;-61
2021/09/08 12:33:02;;;;;;;7.70;5.12;;;;;;;25.85;36.27;98923.77;1805974;79;21106;-60
2021/09/08 12:35:51;;;;;;;6.50;4.50;;;;;;;25.97;34.96;98918.08;1806142;79;21056;-60
2021/09/08 12:38:40;;;;;;;7.15;4.95;;;;;;;26.03;34.75;98926.20;1805304;79;21403;-61
2021/09/08 12:41:17;;;;;;;6.10;5.00;;;;;;;25.86;35.19;98921.25;1805282;78;21085;-61
2021/09/08 12:43:59;;;;;;;5.80;5.17;;;;;;;25.70;34.53;98923.55;1806932;79;21412;-61
2021/09/08 12:46:51;;;;;;;8.18;4.80;;;;;;;25.56;34.65;98923.31;1800257;79;21050;-60
2021/09/08 12:49:26;;;;;;;6.33;4.80;;;;;;;25.53;35.56;98913.67;1792481;79;20888;-64
2021/09/08 12:51:54;;;;;;;6.28;5.33;;;;;;;25.64;36.05;98914.05;1790534;78;21486;-60
2021/09/08 12:54:21;;;;;;;5.75;4.90;;;;;;;25.83;35.53;98911.00;1776382;80;20905;-60
2021/09/08 12:56:50;;;;;;;6.95;5.25;;;;;;;25.87;36.17;98911.84;1760768;80;21067;-61
2021/09/08 12:59:24;;;;;;;9.38;4.75;;;;;;;25.94;36.45;98909.20;1762105;80;21158;-59
2021/09/08 13:01:52;;;;;;;5.92;5.05;;;;;;;26.10;34.98;98908.46;1756233;81;20977;-60
2021/09/08 13:04:19;;;;;;;8.00;5.50;;;;;;;26.10;35.29;98905.72;1767489;80;21014;-60
2021/09/08 13:06:47;;;;;;;5.50;4.90;;;;;;;25.85;34.88;98907.30;1770424;80;21055;-59
2021/09/08 13:09:15;;;;;;;5.85;5.17;;;;;;;25.46;35.27;98906.70;1773308;80;21000;-60
2021/09/08 13:11:42;;;;;;;10.98;6.95;;;;;;;24.98;36.49;98910.30;1775004;80;22331;-59
2021/09/08 13:14:09;;;;;;;8.70;6.65;;;;;;;24.50;37.66;98905.38;1787399;80;20982;-58
2021/09/08 13:16:36;;;;;;;14.63;7.22;;;;;;;24.07;38.74;98910.50;1786865;80;21015;-59
2021/09/08 13:19:05;;;;;;;15.40;9.38;;;;;;;23.69;39.45;98902.17;1787155;80;20860;-59
2021/09/08 13:21:33;;;;;;;22.45;8.80;;;;;;;23.43;40.23;98899.17;1782853;80;21010;-61
2021/09/08 13:24:01;;;;;;;16.17;8.88;;;;;;;23.19;41.53;98897.36;1758391;80;21943;-59
2021/09/08 13:26:29;;;;;;;12.95;8.28;;;;;;;23.01;43.17;98894.16;1762090;81;21526;-61
2021/09/08 13:28:57;;;;;;;19.45;10.20;;;;;;;23.00;44.95;98888.48;1761968;81;20971;-60
2021/09/08 13:31:30;;;;;;;14.45;8.45;;;;;;;23.27;45.35;98886.05;1762701;81;21356;-60
2021/09/08 13:34:03;;;;;;;19.62;9.53;;;;;;;23.75;43.07;98880.23;1762497;81;21114;-60
2021/09/08 13:36:33;;;;;;;15.40;8.78;;;;;;;24.28;42.48;98880.86;1762398;81;21071;-60
2021/09/08 13:39:03;;;;;;;11.65;7.80;;;;;;;24.70;40.28;98877.42;1762595;81;21015;-60
2021/09/08 13:41:30;;;;;;;11.95;7.97;;;;;;;24.96;39.26;98874.83;1762367;81;20962;-59
2021/09/08 13:43:57;;;;;;;10.18;7.47;;;;;;;25.21;38.61;98886.23;1762463;81;20982;-59
2021/09/08 13:46:26;;;;;;;11.50;7.50;;;;;;;25.38;38.40;98873.41;1762478;81;21456;-60
2021/09/08 13:48:53;;;;;;;8.63;7.20;;;;;;;25.62;37.33;98879.92;1762490;81;21793;-60
2021/09/08 13:51:20;;;;;;;8.03;5.58;;;;;;;25.86;36.49;98875.98;1761234;81;20978;-59
2021/09/08 13:53:47;;;;;;;7.70;5.15;;;;;;;26.05;34.72;98867.63;1784872;80;21006;-59
2021/09/08 13:56:14;;;;;;;7.87;4.95;;;;;;;26.22;34.12;98858.86;1787090;80;20919;-59
2021/09/08 13:58:42;;;;;;;6.10;5.08;;;;;;;26.22;34.12;98858.86;1787234;80;21379;-59
2021/09/08 14:01:09;;;;;;;6.87;4.87;;;;;;;26.35;34.46;98849.23;1787072;80;21067;-59
2021/09/08 14:03:35;;;;;;;6.10;5.50;;;;;;;26.35;34.46;98849.23;1787192;80;21339;-60
2021/09/08 14:06:04;;;;;;;8.63;5.42;;;;;;;26.44;33.73;98853.27;1787086;80;21426;-61
2021/09/08 14:08:33;;;;;;;10.58;6.40;;;;;;;26.58;34.34;98849.91;1786622;80;21017;-64
2021/09/08 14:47:43;;;;;;;10.38;6.75;;;;;;;25.70;35.77;98828.89;1871486;76;22282;-59
2021/09/08 14:50:11;;;;;;;10.25;6.87;;;;;;;25.51;36.57;98829.56;1827882;78;20911;-61
2021/09/08 14:52:38;;;;;;;9.18;5.45;;;;;;;25.60;37.82;98827.37;1827862;78;21928;-61
2021/09/08 14:55:07;;;;;;;8.28;5.80;;;;;;;25.84;37.72;98824.80;1827978;78;21379;-62
2021/09/08 14:57:34;;;;;;;6.30;5.17;;;;;;;26.00;36.48;98820.71;1791283;80;21481;-61
2021/09/08 15:00:02;;;;;;;11.88;5.42;;;;;;;26.19;37.39;98821.19;1791654;80;21395;-62
2021/09/08 15:02:29;;;;;;;9.50;5.65;;;;;;;26.39;38.00;98822.59;1791305;80;20847;-61
2021/09/08 15:04:56;;;;;;;10.82;5.55;;;;;;;26.55;38.13;98825.12;1791276;80;21012;-60
2021/09/08 15:07:23;;;;;;;20.45;8.25;;;;;;;26.63;38.00;98819.34;1791296;80;20911;-61
2021/09/08 15:09:52;;;;;;;12.33;6.50;;;;;;;26.74;36.87;98813.38;1791710;80;21465;-63
2021/09/08 15:12:18;;;;;;;16.70;11.00;;;;;;;26.80;37.41;98817.41;1791358;80;20958;-62
2021/09/08 15:14:51;;;;;;;45.80;24.85;;;;;;;26.82;39.00;98810.95;1780225;80;20945;-61
2021/09/08 15:17:17;;;;;;;33.33;11.10;;;;;;;26.81;39.69;98809.93;1780130;80;22249;-61
2021/09/08 15:19:45;;;;;;;31.50;11.88;;;;;;;26.73;38.95;98806.31;1780102;80;20928;-60
2021/09/08 15:22:14;;;;;;;13.80;6.40;;;;;;;26.62;39.01;98809.52;1780140;79;20932;-61
2021/09/08 15:24:42;;;;;;;29.18;10.85;;;;;;;26.48;39.49;98806.61;1780244;79;20904;-61
2021/09/08 15:27:09;;;;;;;30.77;11.40;;;;;;;26.31;40.26;98808.56;1780555;79;21482;-60
2021/09/08 15:29:36;;;;;;;40.85;13.35;;;;;;;26.19;40.11;98811.58;1780246;80;21258;-61
2021/09/08 15:32:05;;;;;;;32.35;12.45;;;;;;;26.05;40.23;98802.52;1780186;80;21395;-62
2021/09/08 15:34:32;;;;;;;14.98;8.28;;;;;;;25.94;40.88;98800.80;1780242;80;21375;-60
2021/09/08 15:36:59;;;;;;;15.18;9.35;;;;;;;25.81;39.89;98798.28;1780450;79;21495;-61
2021/09/08 15:39:26;;;;;;;17.30;13.72;;;;;;;25.69;40.62;98795.78;1780289;79;20935;-61
2021/09/08 15:41:55;;;;;;;31.55;26.02;;;;;;;25.47;40.80;98793.88;1780528;80;21042;-61
2021/09/08 15:44:22;;;;;;;101.30;75.05;;;;;;;25.05;41.54;98784.94;1780086;80;20892;-61
2021/09/08 15:46:49;;;;;;;104.90;86.15;;;;;;;24.49;42.43;98793.68;1773027;80;21352;-61
2021/09/08 15:49:16;;;;;;;94.00;69.37;;;;;;;23.94;43.39;98791.37;1766583;80;21527;-61
2021/09/08 15:51:43;;;;;;;73.83;57.13;;;;;;;23.41;45.06;98788.03;1767172;80;20873;-61
2021/09/08 15:54:11;;;;;;;28.42;24.90;;;;;;;22.91;46.26;98790.09;1766369;81;22070;-61
2021/09/08 15:56:38;;;;;;;31.50;25.17;;;;;;;22.38;47.26;98785.91;1765697;80;21030;-61
2021/09/08 15:59:07;;;;;;;17.62;13.18;;;;;;;21.97;48.42;98787.66;1764398;81;21031;-61
2021/09/08 16:01:34;;;;;;;15.68;10.48;;;;;;;21.60;49.34;98786.91;1765843;81;21597;-63
2021/09/08 16:04:01;;;;;;;15.85;10.00;;;;;;;21.28;50.20;98791.93;1766154;81;20889;-62
2021/09/08 16:06:27;;;;;;;13.03;8.00;;;;;;;20.96;51.16;98790.88;1765623;81;21661;-62
2021/09/08 16:08:54;;;;;;;10.18;6.95;;;;;;;20.70;51.75;98784.93;1765176;81;20941;-61
2021/09/08 16:11:28;;;;;;;14.60;8.40;;;;;;;20.45;52.45;98786.22;1765997;80;21444;-62
2021/09/08 16:13:51;;;;;;;12.55;7.65;;;;;;;20.22;53.61;98786.36;1765643;81;20936;-61
2021/09/08 16:16:18;;;;;;;14.20;8.00;;;;;;;19.99;54.10;98782.37;1766040;81;20936;-62
2021/09/08 16:18:46;;;;;;;34.50;9.23;;;;;;;19.72;54.80;98780.17;1766015;80;20921;-62
2021/09/08 16:21:13;;;;;;;16.12;8.48;;;;;;;19.57;55.42;98780.77;1766054;81;20890;-59
2021/09/08 16:23:40;;;;;;;12.73;7.20;;;;;;;19.42;56.09;98782.70;1766195;81;20921;-60
2021/09/08 16:26:06;;;;;;;21.37;7.70;;;;;;;19.24;56.71;98782.53;1765938;81;20933;-61
2021/09/08 16:28:34;;;;;;;19.37;7.17;;;;;;;19.06;57.45;98786.68;1766123;80;21518;-61
2021/09/08 16:31:01;;;;;;;21.02;7.53;;;;;;;18.90;58.20;98784.83;1747996;81;21114;-60
2021/09/08 16:33:28;;;;;;;16.48;6.78;;;;;;;18.76;58.74;98785.59;1764643;81;20972;-61
2021/09/08 16:35:55;;;;;;;17.40;7.75;;;;;;;18.64;59.30;98784.91;1764617;80;21088;-61
2021/09/08 16:38:21;;;;;;;18.25;7.85;;;;;;;18.52;59.71;98787.50;1764817;81;20936;-60
2021/09/08 16:40:48;;;;;;;23.27;9.98;;;;;;;18.40;60.31;98783.25;1766045;80;20929;-60
2021/09/08 16:43:17;;;;;;;19.50;11.80;;;;;;;18.28;61.00;98780.40;1764885;80;21115;-60